createdAt,value
2019-02-25T00:00:30.864Z,98447.24
2019-02-25T00:03:03.119Z,98443.42
2019-02-25T00:05:32.998Z,98437.05
2019-02-25T00:08:03.303Z,98430.39
2019-02-25T00:10:33.305Z,98428.44
2019-02-25T00:13:03.051Z,98425.64
2019-02-25T00:15:32.256Z,98426.16
2019-02-25T00:18:01.451Z,98421.27
2019-02-25T00:20:30.648Z,98423.18
2019-02-25T00:22:59.968Z,98425.84
2019-02-25T00:25:41.719Z,98424.32
2019-02-25T00:28:14.043Z,98423.77
2019-02-25T00:30:44.377Z,98423.14
2019-02-25T00:33:13.934Z,98421.33
2019-02-25T00:35:43.054Z,98419.63
2019-02-25T00:38:13.351Z,98416.23
2019-02-25T00:40:45.606Z,98423.84
2019-02-25T00:43:16.431Z,98421.96
2019-02-25T00:45:49.502Z,98416.18
2019-02-25T00:48:20.259Z,98410.29
2019-02-25T00:50:49.380Z,98411.83
2019-02-25T00:53:18.853Z,98416.94
2019-02-25T00:55:49.166Z,98417.42
2019-02-25T00:58:19.376Z,98411.58
2019-02-25T01:00:50.971Z,98415.79
2019-02-25T01:03:21.580Z,98411.29
2019-02-25T01:05:55.541Z,98405.16
2019-02-25T01:08:27.461Z,98397.71
2019-02-25T01:10:59.057Z,98403.94
2019-02-25T01:13:31.650Z,98405.47
2019-02-25T01:16:03.778Z,98409.11
2019-02-25T01:18:35.114Z,98408.19
2019-02-25T01:21:04.224Z,98409.91
2019-02-25T01:23:35.105Z,98406.79
2019-02-25T01:26:04.221Z,98400.92
2019-02-25T01:28:33.321Z,98393.33
2019-02-25T01:31:02.409Z,98401.35
2019-02-25T01:33:31.519Z,98405.34
2019-02-25T01:36:03.523Z,98395.10
2019-02-25T01:38:32.593Z,98391.97
2019-02-25T01:41:01.906Z,98398.06
2019-02-25T01:43:33.382Z,98387.13
2019-02-25T01:46:06.027Z,98380.87
2019-02-25T01:48:36.206Z,98383.72
2019-02-25T01:51:11.590Z,98383.44
2019-02-25T01:53:42.753Z,98420.08
2019-02-25T01:56:17.690Z,98387.34
2019-02-25T01:58:52.067Z,98379.85
2019-02-25T02:01:23.376Z,98386.91
2019-02-25T02:03:52.481Z,98387.80
2019-02-25T02:06:21.617Z,98387.00
2019-02-25T02:08:53.235Z,98386.03
2019-02-25T02:11:22.672Z,98378.20
2019-02-25T02:13:51.778Z,98385.82
2019-02-25T02:16:20.866Z,98384.92
2019-02-25T02:18:52.537Z,98380.78
2019-02-25T02:21:22.536Z,98387.88
2019-02-25T02:23:51.649Z,98384.09
2019-02-25T02:26:22.134Z,98386.09
2019-02-25T02:28:55.891Z,98385.03
2019-02-25T02:31:26.267Z,98382.42
2019-02-25T02:33:55.296Z,98387.98
2019-02-25T02:36:24.390Z,98382.10
2019-02-25T02:38:56.300Z,98388.05
2019-02-25T02:41:27.068Z,98388.03
2019-02-25T02:44:03.490Z,98391.25
2019-02-25T02:46:55.882Z,98401.64
2019-02-25T02:49:25.221Z,98396.94
2019-02-25T02:51:54.323Z,98391.80
2019-02-25T02:54:25.509Z,98396.59
2019-02-25T02:56:55.812Z,98401.28
2019-02-25T02:59:30.811Z,98407.52
2019-02-25T03:01:59.900Z,98399.11
2019-02-25T03:04:30.668Z,98397.61
2019-02-25T03:07:04.518Z,98395.03
2019-02-25T03:09:39.195Z,98392.89
2019-02-25T03:12:10.019Z,98384.42
2019-02-25T03:14:39.086Z,98382.41
2019-02-25T03:17:08.161Z,98387.11
2019-02-25T03:19:41.040Z,98384.27
2019-02-25T03:22:10.128Z,98387.92
2019-02-25T03:24:39.466Z,98386.03
2019-02-25T03:27:11.199Z,98385.48
2019-02-25T03:29:40.285Z,98389.24
2019-02-25T03:32:09.659Z,98396.43
2019-02-25T03:34:39.078Z,98401.45
2019-02-25T03:37:12.683Z,98411.78
2019-02-25T03:39:42.958Z,98408.58
2019-02-25T03:42:15.493Z,98413.98
2019-02-25T03:44:47.613Z,98424.08
2019-02-25T03:47:16.733Z,98412.58
2019-02-25T03:49:46.063Z,98413.57
2019-02-25T03:52:15.768Z,98419.92
2019-02-25T03:54:44.878Z,98416.37
2019-02-25T03:57:16.248Z,98425.84
2019-02-25T03:59:47.942Z,98426.17
2019-02-25T04:02:17.071Z,98429.57
2019-02-25T04:04:47.995Z,98429.50
2019-02-25T04:07:17.498Z,98424.89
2019-02-25T04:09:48.913Z,98430.20
2019-02-25T04:12:22.503Z,98425.70
2019-02-25T04:14:52.529Z,98434.88
2019-02-25T04:17:21.810Z,98438.81
2019-02-25T04:19:57.310Z,98428.41
2019-02-25T04:22:37.001Z,98433.31
2019-02-25T04:25:06.586Z,98430.81
2019-02-25T04:27:50.685Z,98425.39
2019-02-25T04:30:19.774Z,98431.30
2019-02-25T04:32:48.868Z,98425.56
2019-02-25T04:35:19.053Z,98422.70
2019-02-25T04:37:48.229Z,98430.04
2019-02-25T04:40:17.373Z,98426.30
2019-02-25T04:42:49.480Z,98423.69
2019-02-25T04:45:25.467Z,98422.34
2019-02-25T04:47:55.214Z,98420.49
2019-02-25T04:50:25.044Z,98421.14
2019-02-25T04:52:59.183Z,98420.10
2019-02-25T04:55:28.544Z,98415.16
2019-02-25T04:57:57.685Z,98416.84
2019-02-25T05:00:28.320Z,98419.55
2019-02-25T05:02:59.967Z,98422.44
2019-02-25T05:05:29.021Z,98421.39
2019-02-25T05:08:10.521Z,98421.69
2019-02-25T05:10:50.469Z,98418.13
2019-02-25T05:13:19.513Z,98410.36
2019-02-25T05:16:07.765Z,98420.27
2019-02-25T05:18:39.424Z,98417.36
2019-02-25T05:21:17.139Z,98423.00
2019-02-25T05:23:47.493Z,98419.34
2019-02-25T05:26:20.149Z,98422.68
2019-02-25T05:28:57.888Z,98418.38
2019-02-25T05:31:28.085Z,98423.19
2019-02-25T05:33:57.208Z,98427.56
2019-02-25T05:36:29.331Z,98431.42
2019-02-25T05:39:04.463Z,98428.45
2019-02-25T05:41:35.272Z,98426.58
2019-02-25T05:44:04.357Z,98421.17
2019-02-25T05:46:38.079Z,98420.33
2019-02-25T05:49:09.479Z,98423.87
2019-02-25T05:51:38.725Z,98412.19
2019-02-25T05:54:07.816Z,98413.77
2019-02-25T05:56:38.207Z,98413.22
2019-02-25T05:59:09.813Z,98137.59
2019-02-25T06:01:42.943Z,98413.31
2019-02-25T06:04:15.011Z,98137.78
2019-02-25T06:06:44.082Z,98417.09
2019-02-25T06:09:13.205Z,98416.55
2019-02-25T06:11:42.375Z,98423.26
2019-02-25T06:14:11.459Z,98424.57
2019-02-25T06:16:40.554Z,98421.95
2019-02-25T06:19:10.440Z,98419.25
2019-02-25T06:21:39.804Z,98419.72
2019-02-25T06:24:08.937Z,98419.23
2019-02-25T06:26:40.053Z,98420.92
2019-02-25T06:29:12.656Z,98420.02
2019-02-25T06:31:45.501Z,98429.12
2019-02-25T06:34:17.730Z,98436.88
2019-02-25T06:36:50.608Z,98454.23
2019-02-25T06:39:31.843Z,98421.49
2019-02-25T06:42:04.383Z,98424.82
2019-02-25T06:44:33.470Z,98423.02
2019-02-25T06:47:05.458Z,98423.72
2019-02-25T06:49:40.491Z,98427.88
2019-02-25T06:52:10.690Z,98431.48
2019-02-25T06:54:40.013Z,98444.55
2019-02-25T06:57:14.779Z,98445.17
2019-02-25T06:59:43.793Z,98440.88
2019-02-25T07:02:16.273Z,98443.08
2019-02-25T07:05:02.965Z,98441.09
2019-02-25T07:07:54.942Z,98443.45
2019-02-25T07:10:34.056Z,98442.16
2019-02-25T07:13:20.020Z,98445.35
2019-02-25T07:16:11.138Z,98440.84
2019-02-25T07:19:03.192Z,98442.41
2019-02-25T07:22:07.993Z,98439.13
2019-02-25T07:24:59.999Z,98439.48
2019-02-25T07:27:37.124Z,98422.31
2019-02-25T07:30:36.036Z,98427.11
2019-02-25T07:33:33.457Z,98428.80
2019-02-25T07:36:14.376Z,98435.63
2019-02-25T07:39:19.703Z,98437.47
2019-02-25T07:42:04.426Z,98441.48
2019-02-25T07:44:55.266Z,98436.70
2019-02-25T07:47:41.839Z,98434.89
2019-02-25T07:50:34.017Z,98429.30
2019-02-25T07:53:29.171Z,98429.23
2019-02-25T07:56:17.436Z,98433.24
2019-02-25T07:59:03.917Z,98433.22
2019-02-25T08:01:42.936Z,98428.74
2019-02-25T08:04:21.354Z,98431.20
2019-02-25T08:07:16.527Z,98427.97
2019-02-25T08:10:16.907Z,98426.89
2019-02-25T08:12:56.149Z,98435.75
2019-02-25T08:15:41.694Z,98437.39
2019-02-25T08:18:17.366Z,98438.23
2019-02-25T08:20:56.142Z,98443.19
2019-02-25T08:23:43.341Z,98446.94
2019-02-25T08:26:27.579Z,98446.69
2019-02-25T08:29:18.860Z,98267.33
2019-02-25T08:32:10.081Z,98452.19
2019-02-25T08:35:04.713Z,98446.11
2019-02-25T08:38:13.334Z,98448.70
2019-02-25T08:41:23.639Z,98442.39
2019-02-25T08:44:20.422Z,98446.00
2019-02-25T08:47:09.478Z,98443.13
2019-02-25T08:49:50.657Z,98446.77
2019-02-25T08:52:22.291Z,98453.36
2019-02-25T08:54:51.531Z,98451.03
2019-02-25T08:57:20.786Z,98454.90
2019-02-25T08:59:55.282Z,98450.92
2019-02-25T09:02:29.500Z,98133.95
2019-02-25T09:04:58.749Z,98138.53
2019-02-25T09:07:32.829Z,98445.90
2019-02-25T09:10:03.894Z,98444.30
2019-02-25T09:12:34.228Z,98451.38
2019-02-25T09:15:06.112Z,98448.21
2019-02-25T09:17:42.790Z,98452.61
2019-02-25T09:20:13.819Z,98456.79
2019-02-25T09:22:46.030Z,98459.44
2019-02-25T09:25:16.307Z,98455.20
2019-02-25T09:27:49.045Z,98458.48
2019-02-25T09:30:24.219Z,98458.89
2019-02-25T09:32:55.996Z,98468.52
2019-02-25T09:35:30.909Z,98463.29
2019-02-25T09:38:01.167Z,98462.82
2019-02-25T09:40:36.772Z,98464.09
2019-02-25T09:43:08.492Z,98464.41
2019-02-25T09:45:37.625Z,98465.20
2019-02-25T09:48:08.327Z,98450.14
2019-02-25T09:50:40.653Z,98455.94
2019-02-25T09:53:09.789Z,98463.73
2019-02-25T09:55:38.944Z,98457.47
2019-02-25T09:58:09.144Z,98458.35
2019-02-25T10:00:39.337Z,98455.73
2019-02-25T10:03:11.955Z,98458.81
2019-02-25T10:05:41.077Z,98465.69
2019-02-25T10:08:11.571Z,98468.61
2019-02-25T10:10:44.047Z,98463.20
2019-02-25T10:13:19.419Z,98469.17
2019-02-25T10:15:54.891Z,98467.02
2019-02-25T10:18:28.741Z,98462.02
2019-02-25T10:21:02.142Z,98467.73
2019-02-25T10:23:49.789Z,98467.95
2019-02-25T10:26:19.111Z,98475.91
2019-02-25T10:28:52.615Z,98482.36
2019-02-25T10:31:21.690Z,98480.19
2019-02-25T10:33:50.923Z,98484.69
2019-02-25T10:36:21.269Z,98476.98
2019-02-25T10:38:53.072Z,98483.63
2019-02-25T10:41:25.558Z,98482.20
2019-02-25T10:44:00.158Z,98472.53
2019-02-25T10:46:32.080Z,98473.78
2019-02-25T10:49:11.576Z,98463.66
2019-02-25T10:51:41.192Z,98464.26
2019-02-25T10:54:10.808Z,98464.23
2019-02-25T10:57:12.775Z,98470.02
2019-02-25T10:59:43.884Z,98457.52
2019-02-25T11:02:15.236Z,98457.86
2019-02-25T11:04:51.432Z,98476.78
2019-02-25T11:07:24.658Z,98455.12
2019-02-25T11:10:17.785Z,98460.80
2019-02-25T11:12:48.476Z,98454.69
2019-02-25T11:15:23.893Z,98455.84
2019-02-25T11:17:53.978Z,98445.75
2019-02-25T11:20:37.743Z,98448.17
2019-02-25T11:23:14.375Z,98440.20
2019-02-25T11:25:42.973Z,98446.48
2019-02-25T11:28:25.942Z,98442.94
2019-02-25T11:30:59.626Z,98440.16
2019-02-25T11:33:30.229Z,98442.58
2019-02-25T11:36:04.936Z,98433.20
2019-02-25T11:38:41.057Z,98436.80
2019-02-25T11:41:12.073Z,98434.30
2019-02-25T11:43:45.774Z,98430.67
2019-02-25T11:46:18.630Z,98430.61
2019-02-25T11:48:47.737Z,98428.45
2019-02-25T11:51:19.879Z,98421.95
2019-02-25T11:53:50.106Z,98419.50
2019-02-25T11:56:22.282Z,98418.81
2019-02-25T11:58:52.848Z,98424.23
2019-02-25T12:01:22.049Z,98422.23
2019-02-25T12:03:52.995Z,98411.08
2019-02-25T12:06:22.160Z,98417.16
2019-02-25T12:08:51.253Z,98416.59
2019-02-25T12:11:21.726Z,98415.45
2019-02-25T12:13:50.760Z,98420.78
2019-02-25T12:16:21.845Z,98415.80
2019-02-25T12:18:51.711Z,98414.07
2019-02-25T12:21:20.953Z,98414.13
2019-02-25T12:26:42.428Z,98410.31
2019-02-25T12:29:12.032Z,98406.40
2019-02-25T12:31:42.001Z,98409.45
2019-02-25T12:34:14.742Z,98410.84
2019-02-25T12:36:43.922Z,98408.63
2019-02-25T12:39:13.191Z,98405.55
2019-02-25T12:41:42.558Z,98400.78
2019-02-25T12:44:13.795Z,98396.94
2019-02-25T12:46:43.200Z,98388.83
2019-02-25T12:49:12.316Z,98383.13
2019-02-25T12:51:41.588Z,98380.58
2019-02-25T12:54:14.342Z,98381.62
2019-02-25T12:56:43.451Z,98373.77
2019-02-25T12:59:13.691Z,98369.22
2019-02-25T13:01:44.020Z,98371.50
2019-02-25T13:04:13.136Z,98363.54
2019-02-25T13:06:43.969Z,98368.34
2019-02-25T13:09:16.736Z,98366.14
2019-02-25T13:11:45.872Z,98357.18
2019-02-25T13:14:15.054Z,98357.98
2019-02-25T13:16:45.441Z,98361.06
2019-02-25T13:19:16.039Z,98354.42
2019-02-25T13:21:45.137Z,98358.13
2019-02-25T13:24:14.260Z,98350.56
2019-02-25T13:26:43.461Z,98352.04
2019-02-25T13:29:12.631Z,98347.69
2019-02-25T13:31:46.036Z,98359.66
2019-02-25T13:34:17.862Z,98339.73
2019-02-25T13:36:53.024Z,98335.40
2019-02-25T13:39:20.400Z,98333.39
2019-02-25T13:41:49.555Z,98373.25
2019-02-25T13:44:22.437Z,98323.89
2019-02-25T13:46:51.637Z,98322.43
2019-02-25T13:49:20.926Z,98322.45
2019-02-25T13:51:50.068Z,98320.39
2019-02-25T13:54:20.763Z,98315.80
2019-02-25T13:56:50.186Z,98319.08
2019-02-25T13:59:19.269Z,98317.81
2019-02-25T14:01:49.385Z,98316.67
2019-02-25T14:04:19.569Z,98316.95
2019-02-25T14:06:48.699Z,98313.13
2019-02-25T14:09:20.441Z,98316.08
2019-02-25T14:11:49.539Z,98317.66
2019-02-25T14:14:22.811Z,98331.48
2019-02-25T14:16:57.221Z,98312.80
2019-02-25T14:19:29.479Z,98310.81
2019-02-25T14:21:58.753Z,98306.83
2019-02-25T14:24:29.544Z,98303.37
2019-02-25T14:26:58.697Z,98300.23
2019-02-25T14:29:29.324Z,98302.18
2019-02-25T14:32:00.229Z,98299.86
2019-02-25T14:34:37.925Z,98299.69
2019-02-25T14:37:07.362Z,98296.38
2019-02-25T14:39:43.139Z,98290.06
2019-02-25T14:42:12.235Z,98287.47
2019-02-25T14:44:43.939Z,98283.61
2019-02-25T14:47:20.413Z,98282.27
2019-02-25T14:49:43.664Z,98272.31
2019-02-25T14:52:12.796Z,98264.92
2019-02-25T14:54:45.703Z,98255.05
2019-02-25T14:57:24.892Z,98277.91
2019-02-25T14:59:57.516Z,98262.48
2019-02-25T15:02:26.616Z,98252.59
2019-02-25T15:04:55.741Z,98255.15
2019-02-25T15:07:26.753Z,98257.82
2019-02-25T15:09:57.941Z,98254.88
2019-02-25T15:12:35.763Z,98245.20
2019-02-25T15:15:08.844Z,98254.06
2019-02-25T15:17:38.245Z,98257.26
2019-02-25T15:20:10.508Z,98252.70
2019-02-25T15:22:46.093Z,98258.81
2019-02-25T15:25:16.822Z,98249.15
2019-02-25T15:27:46.989Z,98248.70
2019-02-25T15:30:25.647Z,98252.19
2019-02-25T15:32:57.123Z,98242.55
2019-02-25T15:35:34.448Z,98231.28
2019-02-25T15:38:05.368Z,98237.72
2019-02-25T15:40:41.031Z,98240.11
2019-02-25T15:43:17.747Z,98237.16
2019-02-25T15:46:16.370Z,98235.52
2019-02-25T15:48:48.764Z,98237.97
2019-02-25T15:51:18.496Z,98236.30
2019-02-25T15:53:55.711Z,98230.82
2019-02-25T15:56:26.130Z,98237.72
2019-02-25T15:58:56.436Z,98234.77
2019-02-25T16:01:25.519Z,98238.05
2019-02-25T16:04:09.143Z,98241.50
2019-02-25T16:06:49.009Z,98239.69
2019-02-25T16:09:25.463Z,98232.14
2019-02-25T16:11:52.538Z,98229.98
2019-02-25T16:14:23.079Z,98226.02
2019-02-25T16:16:52.465Z,98227.63
2019-02-25T16:19:23.119Z,98219.34
2019-02-25T16:21:52.698Z,98223.33
2019-02-25T16:24:24.070Z,98225.95
2019-02-25T16:26:56.263Z,98219.45
2019-02-25T16:29:27.125Z,98220.23
2019-02-25T16:32:01.271Z,98226.42
2019-02-25T16:34:28.349Z,98230.16
2019-02-25T16:36:58.249Z,98253.64
2019-02-25T16:39:30.373Z,98232.49
2019-02-25T16:42:03.832Z,98230.95
2019-02-25T16:44:38.116Z,98250.63
2019-02-25T16:47:07.894Z,98229.90
2019-02-25T16:49:50.337Z,98234.33
2019-02-25T16:52:22.777Z,98240.96
2019-02-25T16:54:54.420Z,98236.30
2019-02-25T16:57:25.075Z,98239.14
2019-02-25T16:59:55.904Z,98243.63
2019-02-25T17:02:27.484Z,98244.67
2019-02-25T17:05:04.551Z,98246.01
2019-02-25T17:07:44.309Z,98249.05
2019-02-25T17:10:15.492Z,98254.41
2019-02-25T17:13:08.084Z,98255.06
2019-02-25T17:15:39.672Z,98256.53
2019-02-25T17:18:09.048Z,98256.42
2019-02-25T17:20:38.229Z,98255.05
2019-02-25T17:23:09.669Z,98257.08
2019-02-25T17:25:38.922Z,98260.17
2019-02-25T17:28:14.342Z,98261.72
2019-02-25T17:30:47.278Z,98257.81
2019-02-25T17:33:21.795Z,98265.52
2019-02-25T17:35:54.238Z,98267.54
2019-02-25T17:38:26.563Z,98270.41
2019-02-25T17:40:56.491Z,98266.94
2019-02-25T17:43:25.688Z,98271.61
2019-02-25T17:48:34.235Z,98268.30
2019-02-25T17:51:05.829Z,98274.62
2019-02-25T17:53:41.022Z,98275.57
2019-02-25T17:56:05.976Z,98271.47
2019-02-25T17:58:38.103Z,98270.75
2019-02-25T18:01:07.987Z,98273.42
2019-02-25T18:03:39.639Z,98271.51
2019-02-25T18:06:08.131Z,98272.23
2019-02-25T18:08:39.336Z,98277.59
2019-02-25T18:11:11.172Z,98280.09
2019-02-25T18:13:40.314Z,98278.45
2019-02-25T18:16:10.223Z,98281.67
2019-02-25T18:18:41.322Z,98285.49
2019-02-25T18:21:11.266Z,98286.36
2019-02-25T18:23:44.473Z,98289.19
2019-02-25T18:26:19.589Z,98279.11
2019-02-25T18:28:59.045Z,98282.89
2019-02-25T18:31:25.062Z,98285.55
2019-02-25T18:34:00.674Z,98287.22
2019-02-25T18:36:31.185Z,98282.74
2019-02-25T18:39:04.413Z,98283.78
2019-02-25T18:41:34.432Z,98288.59
2019-02-25T18:44:11.345Z,98282.14
2019-02-25T18:46:48.224Z,98283.07
2019-02-25T18:49:17.589Z,98284.19
2019-02-25T18:51:47.966Z,98278.48
2019-02-25T18:54:22.895Z,98283.64
2019-02-25T18:56:54.412Z,98276.63
2019-02-25T18:59:23.509Z,98282.89
2019-02-25T19:01:54.102Z,98277.17
2019-02-25T19:04:26.065Z,98277.91
2019-02-25T19:06:59.842Z,98279.72
2019-02-25T19:09:29.433Z,98278.27
2019-02-25T19:11:58.781Z,98276.34
2019-02-25T19:14:28.825Z,98280.06
2019-02-25T19:17:04.810Z,98278.73
2019-02-25T19:19:38.169Z,98283.58
2019-02-25T19:22:13.120Z,98288.70
2019-02-25T19:24:44.569Z,98289.06
2019-02-25T19:27:19.227Z,98287.50
2019-02-25T19:29:49.408Z,98300.31
2019-02-25T19:32:22.992Z,98296.55
2019-02-25T19:34:55.995Z,98299.74
2019-02-25T19:37:31.222Z,98298.01
2019-02-25T19:39:59.710Z,98255.70
2019-02-25T19:42:31.298Z,98301.08
2019-02-25T19:45:03.895Z,98301.43
2019-02-25T19:47:33.005Z,98301.43
2019-02-25T19:50:07.500Z,98296.81
2019-02-25T19:52:37.244Z,98300.33
2019-02-25T19:55:12.833Z,98292.16
2019-02-25T19:57:44.834Z,98291.27
2019-02-25T20:00:25.755Z,98293.69
2019-02-25T20:03:05.617Z,98288.27
2019-02-25T20:05:33.094Z,98293.41
2019-02-25T20:08:01.595Z,98293.78
2019-02-25T20:10:47.260Z,98289.44
2019-02-25T20:13:18.139Z,98293.63
2019-02-25T20:15:49.001Z,98289.78
2019-02-25T20:18:21.078Z,98294.61
2019-02-25T20:20:57.746Z,98298.02
2019-02-25T20:23:32.059Z,98295.03
2019-02-25T20:26:02.622Z,98299.59
2019-02-25T20:28:32.150Z,98295.30
2019-02-25T20:31:09.601Z,98302.77
2019-02-25T20:33:41.795Z,98304.08
2019-02-25T20:36:11.749Z,98306.16
2019-02-25T20:38:42.283Z,98307.56
2019-02-25T20:41:16.067Z,98308.75
2019-02-25T20:43:47.245Z,98305.56
2019-02-25T20:46:38.695Z,98311.69
2019-02-25T20:49:20.883Z,98308.36
2019-02-25T20:51:52.782Z,98329.80
2019-02-25T20:54:31.323Z,98304.37
2019-02-25T20:57:00.851Z,98299.45
2019-02-25T20:59:40.195Z,98298.56
2019-02-25T21:02:19.403Z,98297.11
2019-02-25T21:04:52.365Z,98299.77
2019-02-25T21:07:21.496Z,98297.50
2019-02-25T21:09:53.685Z,98299.07
2019-02-25T21:12:24.559Z,98300.63
2019-02-25T21:14:57.301Z,98298.59
2019-02-25T21:17:28.439Z,98297.55
2019-02-25T21:20:00.323Z,98303.32
2019-02-25T21:22:33.973Z,98309.70
2019-02-25T21:25:04.960Z,98305.06
2019-02-25T21:27:39.069Z,98310.78
2019-02-25T21:30:13.156Z,98310.20
2019-02-25T21:32:43.255Z,98298.89
2019-02-25T21:35:18.187Z,98308.40
2019-02-25T21:37:48.322Z,98308.89
2019-02-25T21:40:22.290Z,98303.30
2019-02-25T21:42:58.817Z,98304.49
2019-02-25T21:45:32.341Z,98305.67
2019-02-25T21:48:04.910Z,98304.09
2019-02-25T21:50:35.979Z,98301.59
2019-02-25T21:53:07.512Z,98301.73
2019-02-25T21:55:38.272Z,98297.69
2019-02-25T21:58:09.562Z,98299.53
2019-02-25T22:00:54.103Z,98298.27
2019-02-25T22:03:23.219Z,98302.19
2019-02-25T22:05:55.628Z,98299.45
2019-02-25T22:08:26.684Z,98290.14
2019-02-25T22:10:59.603Z,98297.58
2019-02-25T22:13:28.432Z,98290.15
2019-02-25T22:16:01.100Z,98291.55
2019-02-25T22:18:36.359Z,98295.21
2019-02-25T22:21:09.199Z,98293.08
2019-02-25T22:23:37.136Z,98288.86
2019-02-25T22:26:10.890Z,98291.02
2019-02-25T22:28:40.002Z,98290.72
2019-02-25T22:31:13.370Z,98289.41
2019-02-25T22:33:41.682Z,98292.39
2019-02-25T22:36:10.802Z,98289.17
2019-02-25T22:38:41.015Z,98286.36
2019-02-25T22:41:10.316Z,98291.16
2019-02-25T22:43:48.169Z,98290.72
2019-02-25T22:46:16.001Z,98291.76
2019-02-25T22:48:47.192Z,98287.67
2019-02-25T22:51:16.125Z,98295.96
2019-02-25T22:53:47.355Z,98292.68
2019-02-25T22:56:18.126Z,98289.64
2019-02-25T22:58:49.276Z,98286.56
2019-02-25T23:01:18.633Z,98290.73
2019-02-25T23:03:54.512Z,98288.67
2019-02-25T23:06:23.591Z,98290.56
2019-02-25T23:08:55.567Z,98281.45
2019-02-25T23:11:26.150Z,98283.03
2019-02-25T23:13:55.721Z,98286.58
2019-02-25T23:16:25.429Z,98293.69
2019-02-25T23:19:00.837Z,98290.45
2019-02-25T23:21:32.134Z,98292.47
2019-02-25T23:24:08.589Z,98291.83
2019-02-25T23:26:42.812Z,98287.46
2019-02-25T23:29:17.605Z,98287.41
2019-02-25T23:32:07.017Z,98298.38
2019-02-25T23:34:38.634Z,98291.63
2019-02-25T23:37:13.002Z,98292.26
2019-02-25T23:39:46.854Z,98290.41
2019-02-25T23:42:26.238Z,98285.83
2019-02-25T23:44:55.387Z,98282.91
2019-02-25T23:47:26.910Z,98292.64
2019-02-25T23:49:58.721Z,98284.13
2019-02-25T23:52:30.974Z,98282.56
2019-02-25T23:54:59.691Z,98285.19
2019-02-25T23:57:32.621Z,98287.44
